Time;durP1;ratioP1;P1;durP2;ratioP2;P2;SDS_P1;SDS_P2;PMS_P1;PMS_P2;Temp;Humidity;BMP_temperature;BMP_pressure;BME280_temperature;BME280_humidity;BME280_pressure;Samples;Min_cycle;Max_cycle;Signal;HPM_P1;HPM_P2
2023/09/04 00:02:15;;;;;;;7.03;6.10;;;17.10;99.90;;;;;;5011257;28;20025;-43
2023/09/04 00:04:41;;;;;;;8.50;5.82;;;17.10;99.90;;;;;;5011365;28;20405;-46
2023/09/04 00:07:06;;;;;;;8.20;6.20;;;17.10;99.90;;;;;;5012793;28;20505;-45
2023/09/04 00:09:32;;;;;;;8.82;6.20;;;17.10;99.90;;;;;;4994846;28;20363;-45
2023/09/04 00:11:57;;;;;;;9.35;5.95;;;17.10;99.90;;;;;;5012343;28;20033;-45
2023/09/04 00:14:23;;;;;;;7.07;5.97;;;17.00;99.90;;;;;;5011070;28;20021;-44
2023/09/04 00:16:48;;;;;;;6.53;5.90;;;17.00;99.90;;;;;;5012796;28;20021;-40
2023/09/04 00:19:14;;;;;;;7.63;6.30;;;16.90;99.90;;;;;;5011193;28;20397;-43
2023/09/04 00:21:39;;;;;;;8.68;6.25;;;16.90;99.90;;;;;;5010763;28;20455;-45
2023/09/04 00:24:05;;;;;;;7.65;6.57;;;16.90;99.90;;;;;;5011041;28;20385;-49
2023/09/04 00:26:31;;;;;;;8.35;5.97;;;16.80;99.90;;;;;;5011156;28;20026;-46
2023/09/04 00:28:56;;;;;;;7.10;6.47;;;16.70;99.90;;;;;;5011853;28;20026;-45
2023/09/04 00:31:23;;;;;;;8.13;6.43;;;16.80;99.90;;;;;;4978321;28;20074;-45
2023/09/04 00:33:49;;;;;;;9.43;5.88;;;16.70;99.90;;;;;;5010974;28;20477;-42
2023/09/04 00:36:14;;;;;;;6.40;5.80;;;16.70;99.90;;;;;;5011077;28;20033;-47
2023/09/04 00:38:40;;;;;;;8.73;5.50;;;16.70;99.90;;;;;;4995129;28;20022;-46
2023/09/04 00:41:05;;;;;;;8.52;5.28;;;16.70;99.90;;;;;;4994307;28;20096;-47
2023/09/04 00:43:37;;;;;;;13.18;6.72;;;16.70;99.90;;;;;;5010598;28;20084;-44
2023/09/04 00:46:03;;;;;;;8.32;6.18;;;16.70;99.90;;;;;;5010668;28;20440;-42
2023/09/04 00:48:32;;;;;;;7.85;5.78;;;16.60;99.90;;;;;;5010611;28;20061;-44
2023/09/04 00:50:59;;;;;;;6.78;5.90;;;16.60;99.90;;;;;;4994409;28;20026;-44
2023/09/04 00:53:25;;;;;;;6.30;5.70;;;16.60;99.90;;;;;;4994062;28;20022;-43
2023/09/04 00:55:50;;;;;;;7.78;6.30;;;16.60;99.90;;;;;;5010493;28;20483;-46
2023/09/04 00:58:16;;;;;;;8.15;5.50;;;16.60;99.90;;;;;;4994171;28;20056;-47
2023/09/04 01:00:43;;;;;;;8.40;5.93;;;16.50;99.90;;;;;;5010300;28;20032;-44
2023/09/04 01:03:11;;;;;;;6.47;5.82;;;16.50;99.90;;;;;;5009906;28;20030;-45
2023/09/04 01:05:36;;;;;;;8.10;5.75;;;16.50;99.90;;;;;;4993923;28;20029;-48
2023/09/04 01:08:03;;;;;;;6.40;5.80;;;16.50;99.90;;;;;;5010464;28;20486;-43
2023/09/04 01:10:47;;;;;;;7.57;5.93;;;16.50;99.90;;;;;;5011293;28;20037;-44
2023/09/04 01:13:20;;;;;;;7.25;5.40;;;16.50;99.90;;;;;;5010255;28;20026;-41
2023/09/04 01:15:46;;;;;;;8.05;5.38;;;16.40;99.90;;;;;;5010593;28;20029;-44
2023/09/04 01:18:13;;;;;;;5.85;5.28;;;16.50;99.90;;;;;;5010484;28;20026;-45
2023/09/04 01:20:39;;;;;;;6.22;4.95;;;16.40;99.90;;;;;;4993906;28;20029;-44
2023/09/04 01:23:04;;;;;;;6.00;5.40;;;16.40;99.90;;;;;;5011367;28;20030;-44
2023/09/04 01:25:43;;;;;;;7.18;5.45;;;16.40;99.90;;;;;;5010498;28;20119;-44
2023/09/04 01:28:24;;;;;;;8.82;5.25;;;16.40;99.90;;;;;;5010348;28;20029;-43
2023/09/04 01:30:59;;;;;;;6.88;5.68;;;16.40;99.90;;;;;;5009789;28;20497;-44
2023/09/04 01:33:35;;;;;;;6.55;5.90;;;16.40;99.90;;;;;;5010355;28;20453;-45
2023/09/04 01:36:04;;;;;;;6.45;5.53;;;16.40;99.90;;;;;;4994411;28;20030;-40
2023/09/04 01:38:32;;;;;;;8.10;6.32;;;16.30;99.90;;;;;;4994313;28;20029;-49
2023/09/04 01:40:58;;;;;;;5.90;5.38;;;16.30;99.90;;;;;;5010121;28;20026;-44
2023/09/04 01:43:23;;;;;;;7.50;5.38;;;16.30;99.90;;;;;;4993560;28;20037;-45
2023/09/04 01:45:49;;;;;;;7.25;5.70;;;16.20;99.90;;;;;;4994038;28;20015;-44
2023/09/04 01:48:14;;;;;;;6.13;5.60;;;16.30;99.90;;;;;;5010251;28;20022;-44
2023/09/04 01:50:40;;;;;;;5.60;5.10;;;16.20;99.90;;;;;;5011217;28;20041;-44
2023/09/04 01:53:05;;;;;;;6.03;5.35;;;16.20;99.90;;;;;;5011269;28;20115;-44
2023/09/04 01:55:31;;;;;;;5.97;5.15;;;16.20;99.90;;;;;;5011271;28;20046;-44
2023/09/04 01:57:56;;;;;;;7.05;6.38;;;16.20;99.90;;;;;;5010094;28;20100;-45
2023/09/04 02:00:22;;;;;;;6.35;5.75;;;16.10;99.90;;;;;;5009810;28;20022;-44
2023/09/04 02:02:47;;;;;;;8.07;5.47;;;16.10;99.90;;;;;;5009893;28;20113;-45
2023/09/04 02:05:13;;;;;;;8.88;5.55;;;16.00;99.90;;;;;;5010020;28;20057;-46
2023/09/04 02:07:38;;;;;;;8.05;5.70;;;16.00;99.90;;;;;;5009803;28;20022;-43
2023/09/04 02:10:04;;;;;;;9.00;5.57;;;16.00;99.90;;;;;;5011153;28;20041;-44
2023/09/04 02:12:30;;;;;;;6.22;5.57;;;16.00;99.90;;;;;;5009583;28;20018;-43
2023/09/04 02:14:56;;;;;;;6.75;6.05;;;15.90;99.90;;;;;;5010637;28;20026;-44
2023/09/04 02:17:21;;;;;;;7.97;5.65;;;15.90;99.90;;;;;;5014593;28;20022;-46
2023/09/04 02:19:47;;;;;;;6.55;5.80;;;15.80;99.90;;;;;;5014447;28;20026;-44
2023/09/04 02:22:12;;;;;;;8.57;5.50;;;15.80;99.90;;;;;;5013196;28;20033;-44
2023/09/04 02:24:38;;;;;;;6.90;6.20;;;15.70;99.90;;;;;;5013225;28;20371;-44
2023/09/04 02:27:03;;;;;;;10.35;6.22;;;15.70;99.90;;;;;;5013098;28;20025;-46
2023/09/04 02:29:29;;;;;;;8.25;6.88;;;15.70;99.90;;;;;;5012657;28;20412;-45
2023/09/04 02:31:55;;;;;;;7.28;5.97;;;15.70;99.90;;;;;;5012605;28;20041;-44
2023/09/04 02:34:20;;;;;;;6.63;5.85;;;15.70;99.90;;;;;;4996637;28;20109;-44
2023/09/04 02:36:46;;;;;;;6.88;5.88;;;15.60;99.90;;;;;;5013016;28;20032;-45
2023/09/04 02:39:11;;;;;;;8.20;5.80;;;15.60;99.90;;;;;;5012781;28;20049;-44
2023/09/04 02:41:37;;;;;;;6.68;5.90;;;15.60;99.90;;;;;;5012627;28;20093;-43
2023/09/04 02:44:03;;;;;;;6.28;5.68;;;15.60;99.90;;;;;;5012896;28;20046;-45
2023/09/04 02:46:32;;;;;;;8.00;5.68;;;15.60;99.90;;;;;;5012699;28;20409;-44
2023/09/04 02:48:58;;;;;;;17.42;6.70;;;15.60;99.90;;;;;;5014111;28;20148;-45
2023/09/04 02:51:23;;;;;;;7.53;6.43;;;15.60;99.90;;;;;;5012985;28;20105;-42
2023/09/04 02:53:50;;;;;;;9.10;6.32;;;15.50;99.90;;;;;;4996780;28;20497;-44
2023/09/04 02:56:15;;;;;;;7.55;6.20;;;15.50;99.90;;;;;;4996622;28;20397;-44
2023/09/04 02:58:41;;;;;;;7.43;5.93;;;15.50;99.90;;;;;;5012975;28;20029;-41
2023/09/04 03:01:06;;;;;;;8.70;5.63;;;15.50;99.90;;;;;;5013012;28;20034;-48
2023/09/04 03:03:32;;;;;;;6.45;5.78;;;15.50;99.90;;;;;;5012294;28;20022;-41
2023/09/04 03:06:07;;;;;;;8.02;5.85;;;15.50;99.90;;;;;;5012579;28;20029;-44
2023/09/04 03:08:32;;;;;;;11.88;5.72;;;15.50;99.90;;;;;;4996076;28;20161;-44
2023/09/04 03:10:58;;;;;;;6.57;5.50;;;15.40;99.90;;;;;;5012523;28;20465;-43
2023/09/04 03:13:23;;;;;;;7.57;4.95;;;15.40;99.90;;;;;;4995804;28;20026;-45
2023/09/04 03:15:49;;;;;;;6.70;5.95;;;15.40;99.90;;;;;;5012328;28;20112;-44
2023/09/04 03:18:14;;;;;;;7.20;5.55;;;15.40;99.90;;;;;;4996008;28;20056;-48
2023/09/04 03:20:40;;;;;;;8.85;6.00;;;15.40;99.90;;;;;;5011881;28;20053;-46
2023/09/04 03:23:07;;;;;;;9.30;6.15;;;15.40;99.90;;;;;;5012243;28;20026;-50
2023/09/04 03:25:33;;;;;;;7.75;5.85;;;15.30;99.90;;;;;;5011977;28;20030;-46
2023/09/04 03:27:58;;;;;;;7.65;6.22;;;15.40;99.90;;;;;;5011416;28;20386;-46
2023/09/04 03:30:24;;;;;;;9.48;6.28;;;15.30;99.90;;;;;;5011673;28;20109;-47
2023/09/04 03:32:49;;;;;;;10.90;6.55;;;15.30;99.90;;;;;;5013482;28;20033;-43
2023/09/04 03:35:17;;;;;;;7.85;5.30;;;15.20;99.90;;;;;;5012244;28;20018;-44
2023/09/04 03:37:42;;;;;;;7.18;6.55;;;15.20;99.90;;;;;;4996247;28;20072;-44
2023/09/04 03:40:22;;;;;;;9.05;6.35;;;15.10;99.90;;;;;;5011914;28;20061;-45
2023/09/04 03:42:48;;;;;;;7.45;5.75;;;15.20;99.90;;;;;;5012924;28;20513;-44
2023/09/04 03:45:13;;;;;;;6.28;5.43;;;15.20;99.90;;;;;;5013098;28;20025;-45
2023/09/04 03:47:39;;;;;;;7.25;6.13;;;15.10;99.90;;;;;;5011613;28;20033;-47
2023/09/04 03:50:08;;;;;;;6.65;6.00;;;15.10;99.90;;;;;;5012808;28;20038;-50
2023/09/04 03:52:33;;;;;;;7.97;6.05;;;15.10;99.90;;;;;;5012610;28;20501;-48
2023/09/04 03:54:59;;;;;;;6.22;5.63;;;15.10;99.90;;;;;;5011695;28;20014;-50
2023/09/04 03:57:25;;;;;;;7.80;6.57;;;15.10;99.90;;;;;;5011473;28;20037;-45
2023/09/04 03:59:56;;;;;;;7.82;7.03;;;15.10;99.90;;;;;;5012648;28;20030;-44
2023/09/04 04:02:21;;;;;;;10.75;5.97;;;15.00;99.90;;;;;;5011156;28;20026;-46
2023/09/04 04:04:51;;;;;;;7.28;5.65;;;15.00;99.90;;;;;;5011495;28;20032;-49
2023/09/04 04:07:17;;;;;;;11.00;6.47;;;15.00;99.90;;;;;;5011425;28;20501;-48
2023/09/04 04:09:44;;;;;;;7.47;6.68;;;15.00;99.90;;;;;;5011412;28;20127;-44
2023/09/04 04:12:10;;;;;;;7.43;6.45;;;14.90;99.90;;;;;;4995059;28;20026;-49
2023/09/04 04:14:36;;;;;;;9.77;6.18;;;14.90;99.90;;;;;;5011394;28;20020;-47
2023/09/04 04:17:01;;;;;;;7.57;6.50;;;15.00;99.90;;;;;;5012713;28;20022;-49
2023/09/04 04:19:28;;;;;;;7.20;5.95;;;14.90;99.90;;;;;;4994938;28;20033;-46
2023/09/04 04:21:53;;;;;;;9.02;6.30;;;14.90;99.90;;;;;;4994634;28;20034;-43
2023/09/04 04:24:20;;;;;;;9.30;6.88;;;14.90;99.90;;;;;;5011098;28;20152;-48
2023/09/04 04:26:46;;;;;;;10.48;6.40;;;14.90;99.90;;;;;;4994810;28;20488;-46
2023/09/04 04:29:11;;;;;;;8.90;6.63;;;14.90;99.90;;;;;;5010596;28;20117;-44
2023/09/04 04:31:37;;;;;;;9.90;6.28;;;14.80;99.90;;;;;;5010644;28;20105;-43
2023/09/04 04:34:03;;;;;;;7.95;6.60;;;14.90;99.90;;;;;;5011076;28;20018;-50
2023/09/04 04:36:29;;;;;;;9.45;7.13;;;14.80;99.90;;;;;;5010903;28;20022;-47
2023/09/04 04:38:54;;;;;;;9.25;6.72;;;14.70;99.90;;;;;;5010669;28;20026;-51
2023/09/04 04:41:20;;;;;;;8.57;6.28;;;14.70;99.90;;;;;;5010527;28;20124;-41
2023/09/04 04:43:46;;;;;;;6.88;5.93;;;14.70;99.90;;;;;;5010480;28;20033;-43
2023/09/04 04:46:14;;;;;;;7.93;6.93;;;14.60;99.90;;;;;;5011899;28;20026;-45
2023/09/04 04:48:39;;;;;;;7.85;6.72;;;14.60;99.90;;;;;;5010588;28;20030;-45
2023/09/04 04:51:05;;;;;;;7.95;6.45;;;14.60;99.90;;;;;;5010497;28;20022;-48
2023/09/04 04:53:30;;;;;;;6.78;6.00;;;14.60;99.90;;;;;;5010413;28;20389;-44
2023/09/04 04:55:56;;;;;;;8.18;6.93;;;14.60;99.90;;;;;;5011775;28;20151;-46
2023/09/04 04:58:22;;;;;;;8.05;6.28;;;14.60;99.90;;;;;;5010775;28;20076;-45
2023/09/04 05:00:48;;;;;;;10.93;6.57;;;14.60;99.90;;;;;;4994197;28;20033;-44
2023/09/04 05:03:14;;;;;;;9.95;6.53;;;14.60;99.90;;;;;;5010322;28;20029;-46
2023/09/04 05:05:45;;;;;;;9.73;5.85;;;14.60;99.90;;;;;;5010483;28;20076;-44
2023/09/04 05:08:10;;;;;;;17.05;6.90;;;14.60;99.90;;;;;;5010274;28;20446;-45
2023/09/04 05:10:36;;;;;;;9.50;6.93;;;14.60;99.90;;;;;;5010114;28;20084;-43
2023/09/04 05:13:02;;;;;;;8.20;6.13;;;14.70;99.90;;;;;;5010176;28;20076;-48
2023/09/04 05:15:27;;;;;;;7.30;6.57;;;14.70;99.90;;;;;;5010473;28;20069;-44
2023/09/04 05:17:53;;;;;;;11.98;6.75;;;14.80;99.90;;;;;;5010427;28;20088;-44
2023/09/04 05:20:18;;;;;;;6.75;5.82;;;14.80;99.90;;;;;;5010204;28;20033;-45
2023/09/04 05:22:44;;;;;;;8.20;6.47;;;14.80;99.90;;;;;;5010048;28;20026;-47
2023/09/04 05:25:11;;;;;;;9.75;5.72;;;14.80;99.90;;;;;;4993935;28;20490;-44
2023/09/04 05:27:37;;;;;;;9.48;7.03;;;15.00;99.90;;;;;;5010215;28;20021;-45
2023/09/04 05:30:03;;;;;;;9.05;6.43;;;15.00;99.90;;;;;;5011049;28;20022;-47
2023/09/04 05:32:28;;;;;;;8.48;6.18;;;15.00;99.90;;;;;;5009763;28;20081;-44
2023/09/04 05:34:54;;;;;;;6.88;6.18;;;15.10;99.90;;;;;;5010126;28;20026;-44
2023/09/04 05:37:21;;;;;;;6.32;5.68;;;15.10;99.90;;;;;;5010273;28;20351;-44
2023/09/04 05:39:46;;;;;;;8.35;6.40;;;15.20;99.90;;;;;;4993686;28;20033;-44
2023/09/04 05:42:12;;;;;;;7.03;5.43;;;15.20;99.90;;;;;;4993803;28;20022;-48
2023/09/04 05:44:38;;;;;;;12.35;6.00;;;15.20;99.90;;;;;;5010135;28;20485;-46
2023/09/04 05:47:03;;;;;;;8.43;5.95;;;15.20;99.90;;;;;;5010080;28;20037;-45
2023/09/04 05:49:29;;;;;;;7.10;6.30;;;15.30;99.90;;;;;;5011426;28;20464;-48
2023/09/04 05:51:54;;;;;;;8.35;5.38;;;15.30;99.90;;;;;;4997352;28;20065;-45
2023/09/04 05:54:22;;;;;;;7.03;5.22;;;15.40;99.90;;;;;;5013785;28;20026;-44
2023/09/04 05:56:48;;;;;;;6.30;5.40;;;15.40;99.90;;;;;;5013557;28;20117;-44
2023/09/04 05:59:14;;;;;;;8.23;5.63;;;15.50;99.90;;;;;;5013755;28;20108;-45
2023/09/04 06:01:40;;;;;;;6.38;5.63;;;15.60;99.90;;;;;;5014678;28;20025;-45
2023/09/04 06:04:05;;;;;;;5.18;4.78;;;15.70;99.90;;;;;;4997175;28;20489;-46
2023/09/04 06:06:31;;;;;;;11.48;5.72;;;15.80;99.90;;;;;;4997142;28;20029;-44
2023/09/04 06:08:57;;;;;;;5.32;4.82;;;15.90;99.90;;;;;;5013427;28;20034;-47
2023/09/04 06:11:22;;;;;;;8.85;4.97;;;15.90;99.90;;;;;;5013514;28;20026;-45
2023/09/04 06:13:48;;;;;;;8.75;5.00;;;16.00;99.90;;;;;;5013340;28;20026;-43
2023/09/04 06:16:17;;;;;;;8.02;5.57;;;16.10;99.90;;;;;;4997280;28;20398;-45
2023/09/04 06:18:42;;;;;;;5.95;4.93;;;16.20;99.90;;;;;;5013360;28;20033;-44
2023/09/04 06:21:08;;;;;;;6.00;5.13;;;16.30;99.90;;;;;;5014622;28;20469;-47
2023/09/04 06:23:34;;;;;;;7.80;5.30;;;16.30;99.90;;;;;;5014240;28;20485;-47
2023/09/04 06:26:03;;;;;;;8.15;5.32;;;16.40;99.90;;;;;;5014648;28;20026;-45
2023/09/04 06:28:29;;;;;;;6.72;5.00;;;16.40;99.90;;;;;;5013099;28;20037;-48
2023/09/04 06:30:57;;;;;;;5.95;5.07;;;16.50;99.90;;;;;;4996517;28;20026;-45
2023/09/04 06:33:27;;;;;;;6.07;4.97;;;16.60;99.90;;;;;;5012887;28;20030;-47
2023/09/04 06:35:53;;;;;;;8.40;4.60;;;16.70;99.90;;;;;;5014161;28;20486;-44
2023/09/04 06:38:18;;;;;;;5.40;4.90;;;16.80;99.90;;;;;;5006179;23;20050;-47
2023/09/04 06:40:44;;;;;;;9.45;4.78;;;17.00;99.90;;;;;;4993440;28;20026;-46
2023/09/04 06:43:10;;;;;;;9.75;5.07;;;17.20;99.90;;;;;;4993847;28;20029;-48
2023/09/04 06:45:37;;;;;;;7.95;5.25;;;17.50;99.90;;;;;;5010236;28;20033;-50
2023/09/04 06:48:04;;;;;;;6.53;4.25;;;17.70;99.90;;;;;;5002551;28;20025;-50
2023/09/04 06:50:30;;;;;;;6.43;4.53;;;18.00;99.90;;;;;;5012882;28;20029;-46
2023/09/04 06:52:55;;;;;;;6.65;3.92;;;18.30;99.90;;;;;;5012948;28;20018;-46
2023/09/04 06:55:21;;;;;;;6.53;3.97;;;18.50;99.90;;;;;;5012839;28;20084;-47
2023/09/04 06:57:46;;;;;;;6.05;3.58;;;18.80;99.90;;;;;;5012775;28;20022;-47
2023/09/04 07:00:13;;;;;;;5.63;3.90;;;19.60;99.90;;;;;;5012705;28;20080;-47
2023/09/04 07:02:39;;;;;;;8.15;3.40;;;20.20;99.90;;;;;;5011739;28;20022;-47
2023/09/04 07:05:07;;;;;;;6.43;3.05;;;20.60;99.90;;;;;;5012820;28;20053;-47
2023/09/04 07:07:35;;;;;;;6.88;3.28;;;21.50;99.90;;;;;;5012719;28;20061;-46
2023/09/04 07:10:02;;;;;;;4.30;3.03;;;22.10;99.90;;;;;;5012470;28;20121;-48
2023/09/04 07:12:29;;;;;;;4.40;3.42;;;22.50;99.90;;;;;;5012655;28;20057;-47
2023/09/04 07:14:55;;;;;;;6.65;3.97;;;23.00;99.90;;;;;;5012784;28;20374;-48
2023/09/04 07:17:20;;;;;;;3.72;3.42;;;23.10;99.90;;;;;;5012621;28;20121;-47
2023/09/04 07:19:46;;;;;;;3.17;2.95;;;23.00;99.90;;;;;;5012123;28;20056;-48
2023/09/04 07:22:11;;;;;;;10.32;2.88;;;23.30;99.90;;;;;;5012212;28;20154;-48
2023/09/04 07:24:37;;;;;;;4.35;3.13;;;24.00;99.90;;;;;;5012168;28;20026;-45
2023/09/04 07:27:03;;;;;;;4.13;2.78;;;23.90;99.90;;;;;;5012174;28;20028;-47
2023/09/04 07:29:29;;;;;;;4.85;2.88;;;24.00;99.90;;;;;;5011737;28;20038;-47
2023/09/04 07:31:56;;;;;;;3.38;3.08;;;24.40;99.90;;;;;;5013123;28;20030;-47
2023/09/04 07:34:21;;;;;;;4.20;2.72;;;24.20;99.90;;;;;;5012083;28;20537;-48
2023/09/04 07:36:47;;;;;;;2.95;2.58;;;24.20;99.90;;;;;;5013171;28;20153;-50
2023/09/04 07:39:12;;;;;;;6.10;2.55;;;24.00;99.90;;;;;;5013945;28;20485;-47
2023/09/04 07:41:38;;;;;;;2.55;2.17;;;23.50;99.90;;;;;;5010144;28;20496;-47
2023/09/04 07:44:04;;;;;;;4.38;2.58;;;24.00;99.90;;;;;;5011606;28;20044;-48
2023/09/04 07:46:30;;;;;;;3.25;2.40;;;24.70;99.90;;;;;;5011324;28;20033;-50
2023/09/04 07:48:55;;;;;;;3.35;2.58;;;24.70;99.90;;;;;;5011430;28;20033;-49
2023/09/04 07:51:21;;;;;;;2.38;2.15;;;25.20;99.90;;;;;;5011189;28;20018;-50
2023/09/04 07:53:47;;;;;;;9.10;3.03;;;25.10;99.90;;;;;;5011098;28;20401;-47
2023/09/04 07:56:12;;;;;;;3.42;2.17;;;24.80;99.90;;;;;;5011785;28;20121;-47
2023/09/04 07:58:40;;;;;;;3.20;2.53;;;24.80;99.90;;;;;;5010986;28;20057;-49
2023/09/04 08:01:13;;;;;;;4.05;2.63;;;24.40;99.90;;;;;;5011145;28;20022;-47
2023/09/04 08:03:39;;;;;;;3.50;2.17;;;24.00;99.90;;;;;;5006237;28;20030;-51
2023/09/04 08:06:04;;;;;;;2.97;2.42;;;24.00;99.90;;;;;;4994926;28;20022;-47
2023/09/04 08:08:30;;;;;;;3.17;2.42;;;24.80;99.90;;;;;;5004935;28;20076;-54
2023/09/04 08:10:56;;;;;;;2.30;2.10;;;25.00;99.80;;;;;;5006839;28;20108;-62
2023/09/04 08:13:22;;;;;;;4.47;2.85;;;25.50;99.50;;;;;;5014206;28;20022;-54
2023/09/04 08:15:47;;;;;;;2.75;2.42;;;26.00;98.10;;;;;;5010566;28;20030;-62
2023/09/04 08:18:13;;;;;;;2.60;2.40;;;26.00;98.10;;;;;;5011141;28;20018;-47
2023/09/04 08:20:39;;;;;;;2.58;2.00;;;26.00;98.20;;;;;;5010470;28;20061;-47
2023/09/04 08:23:09;;;;;;;3.08;2.55;;;25.80;98.60;;;;;;4995016;28;20032;-47
2023/09/04 08:25:35;;;;;;;4.18;2.45;;;25.30;98.40;;;;;;5011743;28;20029;-47
2023/09/04 08:28:03;;;;;;;3.30;2.33;;;25.50;98.90;;;;;;5011062;28;20092;-47
2023/09/04 08:30:28;;;;;;;4.53;2.40;;;26.00;97.90;;;;;;5011243;28;20188;-46
2023/09/04 08:32:54;;;;;;;1.92;1.83;;;26.00;98.10;;;;;;5001113;28;20402;-48
2023/09/04 08:35:20;;;;;;;3.85;2.30;;;26.10;98.30;;;;;;4991447;28;20486;-46
2023/09/04 08:37:46;;;;;;;3.13;2.25;;;26.70;97.30;;;;;;5001073;28;20448;-48
2023/09/04 08:40:12;;;;;;;3.35;2.42;;;26.80;96.80;;;;;;5010875;28;20164;-49
2023/09/04 08:42:39;;;;;;;2.72;2.45;;;26.90;97.50;;;;;;5010405;28;20037;-50
2023/09/04 08:45:07;;;;;;;2.70;2.10;;;27.00;97.20;;;;;;5010738;28;20034;-48
2023/09/04 08:47:38;;;;;;;2.97;2.10;;;26.60;96.70;;;;;;5010813;28;20033;-47
2023/09/04 08:50:04;;;;;;;5.05;2.20;;;27.00;96.30;;;;;;5010831;28;20033;-50
2023/09/04 08:52:30;;;;;;;2.72;1.90;;;27.30;96.10;;;;;;5010477;28;20022;-51
2023/09/04 08:54:56;;;;;;;3.63;1.95;;;27.10;95.70;;;;;;5009702;28;20037;-46
2023/09/04 08:57:23;;;;;;;4.07;2.33;;;27.00;96.80;;;;;;5010490;28;20026;-51
2023/09/04 08:59:49;;;;;;;2.35;2.05;;;27.00;96.10;;;;;;5010667;28;20084;-50
2023/09/04 09:02:15;;;;;;;5.15;2.28;;;27.80;95.90;;;;;;5010662;28;20026;-49
2023/09/04 09:04:42;;;;;;;2.78;1.80;;;27.80;95.00;;;;;;5010712;28;20413;-49
2023/09/04 09:07:10;;;;;;;5.03;2.00;;;27.90;94.70;;;;;;5009183;28;20030;-50
2023/09/04 09:09:39;;;;;;;3.75;1.70;;;27.90;94.50;;;;;;5008995;28;20072;-47
2023/09/04 09:12:05;;;;;;;3.75;1.80;;;27.80;94.00;;;;;;5011932;28;20097;-48
2023/09/04 09:14:31;;;;;;;2.50;1.75;;;27.50;94.20;;;;;;5010565;28;20497;-43
2023/09/04 09:17:08;;;;;;;5.63;1.98;;;27.50;94.00;;;;;;5012465;28;20030;-46
2023/09/04 09:19:35;;;;;;;2.30;2.15;;;27.00;95.10;;;;;;5010357;28;20104;-46
2023/09/04 09:22:18;;;;;;;3.97;3.13;;;26.00;95.00;;;;;;5011557;28;20045;-48
2023/09/04 09:24:51;;;;;;;2.45;1.83;;;25.30;95.60;;;;;;5012393;28;20033;-49
2023/09/04 09:27:18;;;;;;;3.75;2.08;;;25.10;96.00;;;;;;5015676;28;20658;-50
2023/09/04 09:29:45;;;;;;;3.00;2.30;;;24.80;96.40;;;;;;5015479;28;20393;-47
2023/09/04 09:32:11;;;;;;;2.30;1.90;;;24.70;96.30;;;;;;5014536;28;20373;-49
2023/09/04 09:34:38;;;;;;;1.80;1.70;;;24.60;96.70;;;;;;5015492;28;20022;-49
2023/09/04 09:37:03;;;;;;;8.10;2.10;;;24.70;96.70;;;;;;5015129;28;20104;-47
2023/09/04 09:39:31;;;;;;;4.03;1.77;;;24.70;96.20;;;;;;5014819;28;20105;-48
2023/09/04 09:41:59;;;;;;;2.25;1.48;;;24.80;96.00;;;;;;5015454;28;20497;-51
2023/09/04 09:44:33;;;;;;;4.13;1.75;;;24.60;96.20;;;;;;5015204;28;20040;-45
2023/09/04 09:46:59;;;;;;;2.42;1.98;;;24.70;96.40;;;;;;5014072;28;20492;-52
2023/09/04 09:49:26;;;;;;;6.53;2.13;;;24.80;96.10;;;;;;5013332;28;20121;-46
2023/09/04 09:51:54;;;;;;;2.03;1.88;;;25.00;95.50;;;;;;5013254;28;20481;-49
2023/09/04 09:54:36;;;;;;;10.75;8.55;;;25.10;95.30;;;;;;5015562;28;20405;-49
2023/09/04 09:57:08;;;;;;;7.75;1.92;;;25.10;95.10;;;;;;4994134;28;20027;-50
2023/09/04 09:59:47;;;;;;;1.90;1.67;;;25.00;95.10;;;;;;5008999;28;20050;-48
2023/09/04 10:02:18;;;;;;;2.20;1.50;;;25.00;95.50;;;;;;5013428;28;20057;-49
2023/09/04 10:04:44;;;;;;;7.97;1.80;;;25.10;94.90;;;;;;5014654;28;20024;-48
2023/09/04 10:07:17;;;;;;;2.88;2.65;;;25.00;94.50;;;;;;5014896;28;20029;-51
2023/09/04 10:09:45;;;;;;;2.08;1.77;;;24.80;94.60;;;;;;5014318;28;20156;-47
2023/09/04 10:12:19;;;;;;;4.47;1.90;;;24.60;95.00;;;;;;5013122;28;20030;-49
2023/09/04 10:14:46;;;;;;;2.50;1.60;;;24.70;94.80;;;;;;5013383;28;20061;-49
2023/09/04 10:17:17;;;;;;;3.03;1.65;;;24.70;94.40;;;;;;4996731;28;20414;-51
2023/09/04 10:19:46;;;;;;;2.30;1.77;;;24.80;94.90;;;;;;5012683;28;20119;-45
2023/09/04 10:22:24;;;;;;;2.42;1.60;;;24.90;95.30;;;;;;5013492;28;20520;-46
2023/09/04 10:25:09;;;;;;;2.83;2.08;;;24.60;94.60;;;;;;5013735;28;20120;-47
2023/09/04 10:27:41;;;;;;;2.85;2.15;;;24.80;94.30;;;;;;4998280;28;20509;-46
2023/09/04 10:30:07;;;;;;;2.72;1.55;;;24.60;94.20;;;;;;5012826;28;20022;-47
2023/09/04 10:32:36;;;;;;;3.92;1.80;;;24.60;93.80;;;;;;5012092;28;20029;-49
2023/09/04 10:35:02;;;;;;;1.98;1.77;;;24.60;93.90;;;;;;5011511;28;20053;-47
2023/09/04 10:37:30;;;;;;;9.80;6.30;;;24.60;94.30;;;;;;4994948;28;20026;-47
2023/09/04 10:39:57;;;;;;;3.50;2.30;;;24.60;94.60;;;;;;4996663;28;20436;-46
2023/09/04 10:42:27;;;;;;;2.55;1.92;;;24.60;94.70;;;;;;5012639;28;20118;-46
2023/09/04 10:44:53;;;;;;;1.80;1.70;;;24.50;93.50;;;;;;5013274;28;20481;-49
2023/09/04 10:47:20;;;;;;;1.90;1.75;;;24.50;93.70;;;;;;5014258;28;20112;-45
2023/09/04 10:49:47;;;;;;;7.13;1.85;;;24.40;93.20;;;;;;5014017;28;20479;-45
2023/09/04 10:52:13;;;;;;;1.75;1.40;;;24.40;94.20;;;;;;4996676;28;20050;-46
2023/09/04 10:54:39;;;;;;;1.77;1.67;;;24.30;93.40;;;;;;5013004;28;20057;-44
2023/09/04 10:57:13;;;;;;;1.33;1.25;;;24.40;93.60;;;;;;5012610;28;20018;-44
2023/09/04 10:59:53;;;;;;;6.60;1.90;;;24.40;93.20;;;;;;5010985;28;20030;-47
2023/09/04 11:02:28;;;;;;;1.92;1.80;;;24.40;93.60;;;;;;5011972;28;20552;-46
2023/09/04 11:04:54;;;;;;;;;;;24.50;93.40;;;;;;5013440;28;20022;-48
2023/09/04 11:07:19;;;;;;;2.08;1.55;;;24.50;93.80;;;;;;4996023;28;20270;-47
2023/09/04 11:09:46;;;;;;;3.80;1.63;;;24.50;93.30;;;;;;5012747;28;20053;-45
2023/09/04 11:12:19;;;;;;;2.92;1.83;;;24.40;92.80;;;;;;4996107;28;20028;-48
2023/09/04 11:14:47;;;;;;;2.80;1.75;;;24.30;93.30;;;;;;5012660;28;20446;-46
2023/09/04 11:17:15;;;;;;;2.22;1.75;;;24.30;93.50;;;;;;5012770;28;20497;-55
2023/09/04 11:19:41;;;;;;;1.73;1.63;;;24.40;93.80;;;;;;5012845;28;20034;-47
2023/09/04 11:22:26;;;;;;;3.47;2.00;;;24.30;93.20;;;;;;4996028;28;20509;-45
2023/09/04 11:24:54;;;;;;;;;;;24.30;92.90;;;;;;4996289;28;20045;-46
2023/09/04 11:27:20;;;;;;;1.77;1.67;;;24.40;92.40;;;;;;5013330;28;19916;-44
2023/09/04 11:29:47;;;;;;;4.80;2.08;;;24.30;92.70;;;;;;5013694;28;20460;-47
2023/09/04 11:32:13;;;;;;;2.17;1.85;;;24.40;92.90;;;;;;5010940;28;20044;-50
2023/09/04 11:34:42;;;;;;;2.10;1.60;;;24.50;93.00;;;;;;5012020;28;20493;-49
2023/09/04 11:37:08;;;;;;;2.72;1.70;;;24.30;92.50;;;;;;5011647;28;20029;-50
2023/09/04 11:39:33;;;;;;;3.88;2.10;;;24.40;93.00;;;;;;5008637;28;20427;-47
2023/09/04 11:42:00;;;;;;;3.88;1.63;;;24.40;92.80;;;;;;5011347;28;20096;-46
2023/09/04 11:44:26;;;;;;;1.92;1.80;;;24.50;93.10;;;;;;5013315;28;20062;-51
2023/09/04 11:46:52;;;;;;;2.75;1.77;;;24.60;92.40;;;;;;5011243;28;20061;-45
2023/09/04 11:49:18;;;;;;;1.95;1.80;;;24.60;93.00;;;;;;5012274;28;20038;-45
2023/09/04 11:51:44;;;;;;;1.60;1.50;;;24.70;93.00;;;;;;4995117;28;20044;-46
2023/09/04 11:54:10;;;;;;;2.55;1.83;;;24.70;93.00;;;;;;5011750;28;20101;-46
2023/09/04 11:56:36;;;;;;;1.42;1.33;;;24.80;92.30;;;;;;4995456;28;20032;-49
2023/09/04 11:59:03;;;;;;;1.95;1.85;;;24.60;93.00;;;;;;5011617;28;20026;-48
2023/09/04 12:01:29;;;;;;;1.88;1.60;;;24.70;92.50;;;;;;5011581;28;20080;-45
2023/09/04 12:03:55;;;;;;;11.15;9.20;;;24.70;92.60;;;;;;5011861;28;20025;-45
2023/09/04 12:06:30;;;;;;;15.70;11.38;;;24.80;92.80;;;;;;4995377;28;20022;-52
2023/09/04 12:08:57;;;;;;;4.78;2.17;;;24.70;92.30;;;;;;5011107;28;20068;-49
2023/09/04 12:11:23;;;;;;;4.95;1.80;;;24.90;92.70;;;;;;5011046;28;20057;-51
2023/09/04 12:13:48;;;;;;;2.58;1.67;;;24.90;92.30;;;;;;4995506;28;20448;-48
2023/09/04 12:16:16;;;;;;;1.83;1.60;;;24.90;92.70;;;;;;5011102;28;20029;-47
2023/09/04 12:18:42;;;;;;;2.80;1.90;;;25.00;92.90;;;;;;5012555;28;20430;-49
2023/09/04 12:21:09;;;;;;;2.78;1.52;;;25.00;92.50;;;;;;5011197;28;20034;-48
2023/09/04 12:23:47;;;;;;;2.58;1.50;;;25.00;92.40;;;;;;5011100;28;20049;-48
2023/09/04 12:26:15;;;;;;;1.98;1.60;;;24.90;92.10;;;;;;5010883;28;20084;-64
2023/09/04 12:28:41;;;;;;;3.28;2.00;;;25.00;91.90;;;;;;5011078;28;20389;-50
2023/09/04 12:31:08;;;;;;;2.22;1.70;;;25.00;92.00;;;;;;5010598;28;20457;-47
2023/09/04 12:33:38;;;;;;;3.42;1.60;;;25.10;91.80;;;;;;5011128;28;20156;-52
2023/09/04 12:36:08;;;;;;;3.28;1.55;;;25.20;91.90;;;;;;5012271;28;20030;-51
2023/09/04 12:38:35;;;;;;;1.83;1.70;;;25.20;91.20;;;;;;5018606;23;20038;-48
2023/09/04 12:41:01;;;;;;;3.10;1.52;;;25.20;91.50;;;;;;4975059;28;20121;-46
2023/09/04 12:43:27;;;;;;;1.65;1.52;;;25.30;91.50;;;;;;4975887;28;20034;-47
2023/09/04 12:45:52;;;;;;;4.20;1.98;;;25.30;90.20;;;;;;4974836;28;20023;-45
2023/09/04 12:48:18;;;;;;;3.30;1.65;;;25.30;89.30;;;;;;4973780;28;20030;-49